sensor_id;sensor_type;location;lat;lon;timestamp;pressure;altitude;pressure_sealevel;temperature;humidity
65054;BME280;51639;47.828;35.038;2022-07-10T00:01:34;99197.63;;;22.14;67.30
65054;BME280;51639;47.828;35.038;2022-07-10T00:16:36;99202.69;;;22.09;68.67
65054;BME280;51639;47.828;35.038;2022-07-10T00:31:40;99198.66;;;22.10;69.89
65054;BME280;51639;47.828;35.038;2022-07-10T00:46:42;99207.19;;;22.13;70.57
65054;BME280;51639;47.828;35.038;2022-07-10T01:01:44;99225.25;;;22.14;70.90
65054;BME280;51639;47.828;35.038;2022-07-10T01:16:47;99221.97;;;22.15;70.95
65054;BME280;51639;47.828;35.038;2022-07-10T01:31:50;99192.97;;;21.97;72.11
65054;BME280;51639;47.828;35.038;2022-07-10T01:46:57;99189.28;;;21.65;74.03
65054;BME280;51639;47.828;35.038;2022-07-10T02:01:59;99204.75;;;21.73;75.02
65054;BME280;51639;47.828;35.038;2022-07-10T02:17:03;99184.81;;;21.86;74.90
65054;BME280;51639;47.828;35.038;2022-07-10T02:32:05;99181.25;;;21.91;77.05
65054;BME280;51639;47.828;35.038;2022-07-10T02:47:07;99160.19;;;21.88;76.39
65054;BME280;51639;47.828;35.038;2022-07-10T03:02:09;99162.94;;;21.88;77.49
65054;BME280;51639;47.828;35.038;2022-07-10T03:17:11;99151.84;;;21.94;77.77
65054;BME280;51639;47.828;35.038;2022-07-10T03:32:14;99138.25;;;22.20;78.23
65054;BME280;51639;47.828;35.038;2022-07-10T03:47:16;99097.50;;;22.58;77.06
65054;BME280;51639;47.828;35.038;2022-07-10T04:02:17;99079.56;;;22.46;77.87
65054;BME280;51639;47.828;35.038;2022-07-10T04:17:20;99109.03;;;22.25;78.09
65054;BME280;51639;47.828;35.038;2022-07-10T04:32:24;99094.25;;;22.92;76.73
65054;BME280;51639;47.828;35.038;2022-07-10T04:47:25;99087.59;;;23.98;72.82
65054;BME280;51639;47.828;35.038;2022-07-10T05:02:27;99101.97;;;24.57;70.02
65054;BME280;51639;47.828;35.038;2022-07-10T05:17:29;99113.31;;;25.42;65.40
65054;BME280;51639;47.828;35.038;2022-07-10T05:32:43;99095.88;;;25.99;62.63
65054;BME280;51639;47.828;35.038;2022-07-10T05:47:46;99082.13;;;26.29;61.79
65054;BME280;51639;47.828;35.038;2022-07-10T06:02:48;99075.22;;;26.81;60.30
65054;BME280;51639;47.828;35.038;2022-07-10T06:17:56;99073.03;;;25.85;63.38
65054;BME280;51639;47.828;35.038;2022-07-10T06:32:59;99084.13;;;25.49;64.39
65054;BME280;51639;47.828;35.038;2022-07-10T06:48:01;99166.88;;;25.92;64.46
65054;BME280;51639;47.828;35.038;2022-07-10T07:03:04;99189.63;;;25.21;68.26
65054;BME280;51639;47.828;35.038;2022-07-10T07:18:07;99170.13;;;24.79;70.05
65054;BME280;51639;47.828;35.038;2022-07-10T07:33:10;99147.28;;;25.48;72.40
65054;BME280;51639;47.828;35.038;2022-07-10T07:48:12;99079.19;;;26.35;72.15
65054;BME280;51639;47.828;35.038;2022-07-10T08:03:14;99051.44;;;26.73;66.07
65054;BME280;51639;47.828;35.038;2022-07-10T08:18:16;99030.19;;;28.16;59.06
65054;BME280;51639;47.828;35.038;2022-07-10T08:33:18;99032.41;;;28.58;55.57
65054;BME280;51639;47.828;35.038;2022-07-10T08:48:23;99024.44;;;28.79;54.37
65054;BME280;51639;47.828;35.038;2022-07-10T09:03:25;99056.34;;;27.89;55.84
65054;BME280;51639;47.828;35.038;2022-07-10T09:18:27;99068.34;;;28.22;50.09
65054;BME280;51639;47.828;35.038;2022-07-10T09:33:31;99089.78;;;28.76;50.64
65054;BME280;51639;47.828;35.038;2022-07-10T09:48:34;99069.28;;;28.57;51.84
65054;BME280;51639;47.828;35.038;2022-07-10T10:03:38;99040.41;;;29.29;50.85
65054;BME280;51639;47.828;35.038;2022-07-10T10:18:42;99039.19;;;30.62;47.02
65054;BME280;51639;47.828;35.038;2022-07-10T10:34:04;99037.28;;;31.11;45.95
65054;BME280;51639;47.828;35.038;2022-07-10T10:49:07;99034.69;;;32.29;42.54
65054;BME280;51639;47.828;35.038;2022-07-10T11:19:12;99022.03;;;30.95;42.03
65054;BME280;51639;47.828;35.038;2022-07-10T11:34:14;99011.09;;;30.79;43.33
65054;BME280;51639;47.828;35.038;2022-07-10T11:49:16;99010.72;;;30.93;43.24
65054;BME280;51639;47.828;35.038;2022-07-10T12:04:20;99002.19;;;31.10;41.63
65054;BME280;51639;47.828;35.038;2022-07-10T12:19:28;98992.53;;;30.47;40.82
65054;BME280;51639;47.828;35.038;2022-07-10T12:34:42;98990.53;;;29.60;41.93
65054;BME280;51639;47.828;35.038;2022-07-10T12:49:55;98980.69;;;29.41;41.95
65054;BME280;51639;47.828;35.038;2022-07-10T13:04:58;98969.63;;;29.61;43.65
65054;BME280;51639;47.828;35.038;2022-07-10T13:20:00;98958.19;;;29.14;45.29
65054;BME280;51639;47.828;35.038;2022-07-10T13:35:02;98956.47;;;29.36;45.31
65054;BME280;51639;47.828;35.038;2022-07-10T13:50:04;98967.81;;;29.38;45.77
65054;BME280;51639;47.828;35.038;2022-07-10T14:05:06;98967.19;;;29.47;45.56
65054;BME280;51639;47.828;35.038;2022-07-10T14:20:12;98947.78;;;29.15;45.97
65054;BME280;51639;47.828;35.038;2022-07-10T14:35:14;98948.56;;;28.91;46.94
65054;BME280;51639;47.828;35.038;2022-07-10T14:50:16;98926.91;;;28.99;46.37
65054;BME280;51639;47.828;35.038;2022-07-10T15:05:18;98904.38;;;28.97;46.74
65054;BME280;51639;47.828;35.038;2022-07-10T15:20:21;98908.28;;;28.76;46.95
65054;BME280;51639;47.828;35.038;2022-07-10T15:35:23;98949.09;;;28.47;44.03
65054;BME280;51639;47.828;35.038;2022-07-10T15:50:25;98966.66;;;26.66;52.80
65054;BME280;51639;47.828;35.038;2022-07-10T16:05:34;99033.84;;;24.48;72.10
65054;BME280;51639;47.828;35.038;2022-07-10T16:20:37;99036.94;;;21.61;91.34
65054;BME280;51639;47.828;35.038;2022-07-10T16:35:40;99037.59;;;21.48;100.00
65054;BME280;51639;47.828;35.038;2022-07-10T16:50:41;99062.25;;;21.65;100.00
65054;BME280;51639;47.828;35.038;2022-07-10T17:05:43;99106.72;;;21.61;100.00
65054;BME280;51639;47.828;35.038;2022-07-10T17:20:46;99119.44;;;21.46;100.00
65054;BME280;51639;47.828;35.038;2022-07-10T17:35:48;99097.97;;;21.57;100.00
65054;BME280;51639;47.828;35.038;2022-07-10T17:50:50;99065.06;;;21.59;100.00
65054;BME280;51639;47.828;35.038;2022-07-10T18:05:52;99065.25;;;21.42;100.00
65054;BME280;51639;47.828;35.038;2022-07-10T18:20:54;99083.03;;;21.17;100.00
65054;BME280;51639;47.828;35.038;2022-07-10T18:35:59;99097.63;;;21.12;100.00
65054;BME280;51639;47.828;35.038;2022-07-10T18:51:01;99109.22;;;21.05;100.00
65054;BME280;51639;47.828;35.038;2022-07-10T19:06:03;99116.22;;;21.06;100.00
65054;BME280;51639;47.828;35.038;2022-07-10T19:21:06;99125.16;;;21.18;100.00
65054;BME280;51639;47.828;35.038;2022-07-10T19:36:11;99146.75;;;21.19;100.00
65054;BME280;51639;47.828;35.038;2022-07-10T19:51:14;99154.31;;;21.49;100.00
65054;BME280;51639;47.828;35.038;2022-07-10T20:06:16;99160.63;;;21.43;100.00
65054;BME280;51639;47.828;35.038;2022-07-10T20:21:18;99148.31;;;21.09;100.00
65054;BME280;51639;47.828;35.038;2022-07-10T20:36:20;99154.00;;;20.87;100.00
65054;BME280;51639;47.828;35.038;2022-07-10T20:51:41;99125.03;;;20.69;100.00
65054;BME280;51639;47.828;35.038;2022-07-10T21:06:43;99111.03;;;20.61;100.00
65054;BME280;51639;47.828;35.038;2022-07-10T21:21:45;99116.63;;;20.50;100.00
65054;BME280;51639;47.828;35.038;2022-07-10T21:36:47;99075.56;;;20.41;100.00
65054;BME280;51639;47.828;35.038;2022-07-10T21:51:49;99073.28;;;20.45;100.00
65054;BME280;51639;47.828;35.038;2022-07-10T22:06:51;99063.84;;;20.70;100.00
65054;BME280;51639;47.828;35.038;2022-07-10T22:21:54;99055.41;;;20.57;100.00
65054;BME280;51639;47.828;35.038;2022-07-10T22:36:56;99075.09;;;20.37;100.00
65054;BME280;51639;47.828;35.038;2022-07-10T22:51:58;99048.00;;;20.41;100.00
65054;BME280;51639;47.828;35.038;2022-07-10T23:07:00;99057.69;;;20.06;100.00
65054;BME280;51639;47.828;35.038;2022-07-10T23:22:02;99049.22;;;19.93;100.00
65054;BME280;51639;47.828;35.038;2022-07-10T23:37:06;99057.00;;;19.89;100.00
65054;BME280;51639;47.828;35.038;2022-07-10T23:52:08;99069.47;;;20.07;100.00
